Time;durP1;ratioP1;P1;durP2;ratioP2;P2;SDS_P1;SDS_P2;PMS_P1;PMS_P2;Temp;Humidity;BMP_temperature;BMP_pressure;BME280_temperature;BME280_humidity;BME280_pressure;Samples;Min_cycle;Max_cycle;Signal;HPM_P1;HPM_P2
2022/09/01 00:01:53;;;;;;;4.85;3.80;;;;;;;16.19;92.30;100778.59;2637583;86;21096;-95
2022/09/01 00:05:55;;;;;;;7.75;5.15;;;;;;;16.16;92.17;100771.36;2631008;88;21112;-95
2022/09/01 00:09:58;;;;;;;5.75;3.90;;;;;;;16.10;92.15;100769.61;2639277;88;21154;-96
2022/09/01 00:14:01;;;;;;;8.35;3.10;;;;;;;16.08;92.63;100770.25;2603950;88;21131;-96
2022/09/01 00:18:03;;;;;;;6.22;3.08;;;;;;;16.07;93.01;100773.94;2591447;88;21191;-96
2022/09/01 00:22:06;;;;;;;5.03;3.95;;;;;;;16.06;93.19;100775.45;2597829;89;21107;-94
2022/09/01 00:26:08;;;;;;;4.78;3.37;;;;;;;16.04;93.46;100771.55;2564770;90;21686;-95
2022/09/01 00:30:10;;;;;;;5.00;3.45;;;;;;;15.99;93.73;100773.34;2623385;88;21468;-94
2022/09/01 00:34:12;;;;;;;3.72;2.40;;;;;;;16.00;94.02;100774.20;2599089;89;21106;-95
2022/09/01 00:38:14;;;;;;;6.45;3.77;;;;;;;15.93;94.62;100777.14;2575934;89;21136;-95
2022/09/01 00:42:15;;;;;;;5.78;4.05;;;;;;;15.81;94.79;100771.92;2599707;89;21076;-94
2022/09/01 00:46:22;;;;;;;5.90;4.22;;;;;;;15.85;95.32;100769.80;2622094;88;21122;-95
2022/09/01 00:50:24;;;;;;;4.47;4.05;;;;;;;15.85;95.53;100777.84;2629057;87;21666;-94
2022/09/01 00:54:30;;;;;;;4.40;3.00;;;;;;;15.87;95.24;100774.52;2665970;86;21091;-95
2022/09/01 00:58:33;;;;;;;4.85;3.55;;;;;;;15.86;94.43;100775.52;2679129;87;21100;-94
2022/09/01 01:02:35;;;;;;;11.80;4.12;;;;;;;15.82;94.59;100769.59;2608129;88;21077;-95
2022/09/01 01:06:39;;;;;;;3.45;2.62;;;;;;;15.78;94.62;100768.69;2593172;89;21118;-95
2022/09/01 01:10:41;;;;;;;4.03;2.98;;;;;;;15.76;95.09;100766.17;2562557;89;21198;-95
2022/09/01 01:14:49;;;;;;;7.08;3.52;;;;;;;15.67;94.95;100760.34;2645076;86;21116;-95
2022/09/01 01:18:50;;;;;;;5.05;3.60;;;;;;;15.60;95.98;100765.95;2601888;88;21110;-96
2022/09/01 01:23:26;;;;;;;4.30;3.60;;;;;;;15.55;96.02;100767.25;2622466;89;21068;-94
2022/09/01 01:27:35;;;;;;;6.28;3.98;;;;;;;15.60;96.42;100765.95;2582998;89;21098;-93
2022/09/01 01:31:37;;;;;;;5.12;3.37;;;;;;;15.66;96.47;100765.35;2583581;88;21112;-94
2022/09/01 01:35:40;;;;;;;6.45;3.98;;;;;;;15.67;97.33;100762.53;2634778;87;21111;-94
2022/09/01 01:39:43;;;;;;;7.17;3.67;;;;;;;15.73;97.39;100765.13;2590276;88;21052;-94
2022/09/01 01:43:47;;;;;;;5.50;3.90;;;;;;;15.72;98.05;100772.80;2593268;87;21674;-94
2022/09/01 01:47:56;;;;;;;4.37;3.98;;;;;;;15.39;99.41;100763.82;2597728;88;22567;-94
2022/09/01 01:51:56;;;;;;;4.80;3.92;;;;;;;15.32;100.00;100763.20;2615542;89;21726;-94
2022/09/01 01:55:59;;;;;;;4.25;3.45;;;;;;;15.31;100.00;100771.75;2625292;88;21634;-94
2022/09/01 02:00:02;;;;;;;7.87;3.62;;;;;;;15.35;100.00;100768.30;2650154;86;21352;-96
2022/09/01 02:04:04;;;;;;;8.05;4.05;;;;;;;15.44;100.00;100763.39;2620718;89;21106;-96
2022/09/01 02:08:08;;;;;;;5.03;3.17;;;;;;;15.60;100.00;100761.93;2607012;89;21107;-94
2022/09/01 02:12:10;;;;;;;5.28;3.85;;;;;;;15.67;100.00;100762.53;2583781;88;21087;-94
2022/09/01 02:16:13;;;;;;;4.15;3.75;;;;;;;15.75;100.00;100756.44;2621540;88;21140;-94
2022/09/01 02:20:15;;;;;;;6.85;4.03;;;;;;;15.82;100.00;100756.18;2629834;88;21682;-94
2022/09/01 02:24:17;;;;;;;4.72;3.60;;;;;;;15.90;100.00;100754.61;2611213;87;21652;-94
2022/09/01 02:28:21;;;;;;;23.18;4.33;;;;;;;15.91;100.00;100753.61;2560831;90;21068;-93
2022/09/01 02:32:23;;;;;;;4.30;3.37;;;;;;;15.92;99.66;100752.66;2570036;88;21818;-94
2022/09/01 02:36:24;;;;;;;6.00;4.53;;;;;;;15.88;100.00;100760.11;2652394;87;21095;-95
2022/09/01 02:40:31;;;;;;;5.55;4.72;;;;;;;15.96;100.00;100754.03;2637313;87;21190;-94
2022/09/01 02:44:31;;;;;;;6.92;4.22;;;;;;;16.02;100.00;100756.11;2628791;88;21123;-94
2022/09/01 02:48:40;;;;;;;5.17;4.22;;;;;;;15.84;100.00;100760.06;2610539;88;21110;-94
2022/09/01 02:52:42;;;;;;;5.58;3.80;;;;;;;15.60;100.00;100760.08;2616620;89;21719;-95
2022/09/01 02:56:53;;;;;;;6.70;4.42;;;;;;;15.60;100.00;100759.25;2596671;90;21172;-96
2022/09/01 03:00:55;;;;;;;12.93;4.58;;;;;;;15.61;100.00;100764.96;2610614;88;21345;-91
2022/09/01 03:04:57;;;;;;;4.15;3.75;;;;;;;15.58;100.00;100762.58;2613136;88;21095;-90
2022/09/01 03:08:59;;;;;;;5.83;4.15;;;;;;;15.53;100.00;100759.84;2611866;89;21615;-91
2022/09/01 03:13:05;;;;;;;6.10;4.12;;;;;;;15.53;100.00;100753.62;2638014;88;21077;-91
2022/09/01 03:17:06;;;;;;;4.15;3.50;;;;;;;15.66;100.00;100752.80;2614565;88;21103;-92
2022/09/01 03:21:09;;;;;;;6.15;3.62;;;;;;;15.80;100.00;100744.76;2619585;87;21579;-92
2022/09/01 03:25:10;;;;;;;4.60;4.10;;;;;;;15.92;100.00;100755.33;2609616;89;21136;-86
2022/09/01 03:29:14;;;;;;;5.62;4.28;;;;;;;15.89;100.00;100759.63;2556921;88;21064;-86
2022/09/01 03:33:18;;;;;;;6.35;4.37;;;;;;;15.85;100.00;100760.41;2538897;91;21114;-85
2022/09/01 03:37:19;;;;;;;6.72;3.75;;;;;;;15.71;100.00;100755.02;2618331;88;21063;-85
2022/09/01 03:41:27;;;;;;;4.75;3.17;;;;;;;15.69;100.00;100758.34;2638797;88;21572;-86
2022/09/01 03:45:37;;;;;;;8.68;4.03;;;;;;;15.70;100.00;100759.55;2649346;87;21100;-85
2022/09/01 03:49:38;;;;;;;7.10;3.85;;;;;;;15.65;100.00;100760.50;2644025;87;21128;-86
2022/09/01 03:53:40;;;;;;;5.17;3.92;;;;;;;15.65;100.00;100756.48;2616681;88;21575;-86
2022/09/01 03:57:41;;;;;;;4.33;3.50;;;;;;;15.65;100.00;100756.96;2632189;87;21421;-86
2022/09/01 04:01:44;;;;;;;4.80;3.58;;;;;;;15.56;100.00;100756.87;2612135;88;21607;-86
2022/09/01 04:05:46;;;;;;;8.28;4.67;;;;;;;15.54;100.00;100768.23;2656181;87;21088;-87
2022/09/01 04:09:49;;;;;;;15.93;4.78;;;;;;;15.50;100.00;100760.62;2590355;88;21624;-87
2022/09/01 04:13:51;;;;;;;8.88;5.42;;;;;;;15.46;100.00;100762.74;2616399;87;21023;-87
2022/09/01 04:18:08;;;;;;;10.15;4.70;;;;;;;15.44;100.00;100756.69;2664553;87;21537;-87
2022/09/01 04:22:13;;;;;;;6.47;4.42;;;;;;;15.38;100.00;100758.63;2658714;87;21103;-88
2022/09/01 04:26:19;;;;;;;5.87;3.50;;;;;;;15.42;100.00;100758.16;2625003;89;21114;-87
2022/09/01 04:30:16;;;;;;;18.30;5.87;;;;;;;15.52;100.00;100761.32;2642629;87;21145;-88
2022/09/01 04:34:21;;;;;;;11.18;5.37;;;;;;;15.54;100.00;100768.72;2650345;86;21600;-87
2022/09/01 04:38:23;;;;;;;10.28;4.47;;;;;;;15.52;100.00;100772.05;2659742;86;21096;-87
2022/09/01 04:42:28;;;;;;;8.83;4.22;;;;;;;15.56;100.00;100771.61;2607395;89;21099;-87
2022/09/01 04:46:34;;;;;;;9.50;4.78;;;;;;;15.71;100.00;100765.27;2613137;89;21087;-88
2022/09/01 04:50:39;;;;;;;;;;;;;;;15.83;100.00;100771.28;2585030;89;21135;-87
2022/09/01 04:54:39;;;;;;;7.65;3.83;;;;;;;15.99;100.00;100768.48;2587487;90;20157;-87
2022/09/01 04:58:40;;;;;;;5.12;3.67;;;;;;;16.03;100.00;100775.23;2641494;87;21095;-87
2022/09/01 05:02:44;;;;;;;5.55;4.42;;;;;;;16.11;100.00;100772.66;2653101;86;21159;-88
2022/09/01 05:06:49;;;;;;;6.30;5.40;;;;;;;16.25;100.00;100771.78;2603390;88;21127;-88
2022/09/01 05:10:54;;;;;;;;;;;;;;;16.39;100.00;100780.67;2627287;87;21106;-88
2022/09/01 05:14:55;;;;;;;4.42;4.03;;;;;;;16.53;100.00;100781.98;2620219;89;20140;-88
2022/09/01 05:19:00;;;;;;;4.08;3.70;;;;;;;16.58;100.00;100777.98;2628021;89;21588;-88
2022/09/01 05:23:01;;;;;;;9.10;5.05;;;;;;;16.67;100.00;100774.39;2643294;88;21083;-87
2022/09/01 05:27:07;;;;;;;5.65;4.12;;;;;;;16.81;100.00;100777.02;2640445;88;21132;-87
2022/09/01 05:31:09;;;;;;;6.90;4.67;;;;;;;16.93;99.64;100775.80;2647563;88;21602;-87
2022/09/01 05:35:10;;;;;;;5.90;5.28;;;;;;;16.95;98.71;100775.14;2630418;88;21104;-88
2022/09/01 05:39:12;;;;;;;9.03;4.50;;;;;;;17.01;97.93;100784.94;2634903;86;21128;-88
2022/09/01 05:43:14;;;;;;;7.65;4.62;;;;;;;17.13;97.23;100782.36;2609215;87;34467;-87
2022/09/01 05:47:16;;;;;;;5.97;5.00;;;;;;;17.25;95.05;100781.59;2645834;88;21441;-87
2022/09/01 05:51:22;;;;;;;6.78;4.78;;;;;;;17.38;94.67;100785.20;2635235;88;21083;-88
2022/09/01 05:55:26;;;;;;;5.92;4.80;;;;;;;17.49;94.70;100786.78;2640191;87;21155;-88
2022/09/01 05:59:30;;;;;;;7.58;4.83;;;;;;;17.54;95.02;100790.69;2664602;87;21134;-88
2022/09/01 06:03:32;;;;;;;10.25;6.53;;;;;;;17.68;94.55;100792.42;2626111;88;21178;-88
2022/09/01 06:07:39;;;;;;;5.42;3.98;;;;;;;18.16;93.93;100790.64;2601326;89;21076;-88
2022/09/01 06:11:37;;;;;;;7.40;5.92;;;;;;;18.52;90.70;100789.05;2641876;87;21147;-88
2022/09/01 06:15:39;;;;;;;7.40;4.90;;;;;;;18.61;87.62;100791.26;2640945;88;21712;-88
2022/09/01 06:19:41;;;;;;;11.88;4.00;;;;;;;18.51;86.22;100786.02;2649610;89;21213;-88
2022/09/01 06:23:44;;;;;;;6.95;4.42;;;;;;;18.64;87.39;100791.75;2618387;88;21098;-88
2022/09/01 06:27:47;;;;;;;4.75;4.28;;;;;;;18.66;84.51;100794.28;2640270;88;21099;-88
2022/09/01 06:31:51;;;;;;;5.33;4.72;;;;;;;18.70;84.04;100793.80;2632508;86;21146;-88
2022/09/01 06:35:52;;;;;;;5.17;4.70;;;;;;;18.70;86.06;100796.98;2643734;88;21121;-88
2022/09/01 06:39:56;;;;;;;7.35;4.40;;;;;;;18.77;84.78;100798.02;2613009;87;21084;-88
2022/09/01 06:43:59;;;;;;;7.40;4.25;;;;;;;18.93;85.57;100800.35;2637702;88;21179;-88
2022/09/01 06:48:00;;;;;;;7.05;4.53;;;;;;;19.07;85.34;100806.98;2607653;88;21059;-87
2022/09/01 06:52:03;;;;;;;5.00;4.53;;;;;;;19.15;85.20;100811.00;2602814;86;21591;-88
2022/09/01 06:56:05;;;;;;;6.58;4.40;;;;;;;19.16;82.97;100813.17;2603648;86;21102;-88
2022/09/01 07:00:22;;;;;;;9.23;3.80;;;;;;;19.09;83.50;100810.34;2638650;88;21062;-88
2022/09/01 07:04:20;;;;;;;3.95;3.65;;;;;;;19.09;82.83;100810.34;2638703;87;21083;-88
2022/09/01 07:08:20;;;;;;;6.37;3.50;;;;;;;19.26;82.42;100810.67;2646243;88;21052;-88
2022/09/01 07:12:22;;;;;;;5.10;4.05;;;;;;;19.42;82.53;100811.63;2585772;89;21063;-88
2022/09/01 07:16:25;;;;;;;10.85;4.17;;;;;;;19.52;82.04;100816.35;2589175;90;21185;-88
2022/09/01 07:20:38;;;;;;;5.40;4.78;;;;;;;19.66;81.12;100804.52;2623594;88;21592;-88
2022/09/01 07:24:34;;;;;;;4.80;3.70;;;;;;;19.86;80.96;100800.07;2621826;89;21072;-88
2022/09/01 07:28:36;;;;;;;7.55;4.47;;;;;;;20.25;80.38;100808.70;2604183;88;21036;-88
2022/09/01 07:32:39;;;;;;;7.05;3.98;;;;;;;20.31;77.40;100817.93;2624264;88;21131;-88
2022/09/01 07:36:42;;;;;;;5.37;3.85;;;;;;;20.26;77.81;100815.78;2631212;88;21060;-88
2022/09/01 07:40:44;;;;;;;3.90;3.42;;;;;;;20.25;78.08;100826.25;2648084;85;21594;-88
2022/09/01 07:44:46;;;;;;;8.80;4.60;;;;;;;20.29;78.02;100828.93;2642223;87;21189;-88
2022/09/01 07:48:48;;;;;;;4.47;4.08;;;;;;;20.38;78.47;100824.33;2615558;88;21082;-88
2022/09/01 07:52:50;;;;;;;7.12;4.22;;;;;;;20.53;77.69;100827.10;2629993;85;21123;-88
2022/09/01 07:56:54;;;;;;;5.62;3.42;;;;;;;20.72;78.11;100831.19;2653425;88;21047;-88
2022/09/01 08:00:56;;;;;;;4.22;3.83;;;;;;;20.96;77.26;100826.67;2647796;87;21623;-88
2022/09/01 08:04:58;;;;;;;4.72;3.70;;;;;;;21.10;74.99;100819.63;2634454;89;21489;-88
2022/09/01 08:08:59;;;;;;;9.10;4.05;;;;;;;21.24;74.57;100824.73;2649146;86;21082;-88
2022/09/01 08:13:01;;;;;;;4.30;3.35;;;;;;;21.35;75.13;100830.20;2645642;87;21403;-88
2022/09/01 08:17:03;;;;;;;3.42;2.98;;;;;;;21.39;73.60;100830.16;2625552;87;21075;-88
2022/09/01 08:21:10;;;;;;;3.20;2.75;;;;;;;21.41;72.63;100833.52;2636507;88;21007;-87
2022/09/01 08:25:12;;;;;;;5.47;3.30;;;;;;;21.39;71.53;100833.72;2633542;89;21079;-86
2022/09/01 08:29:14;;;;;;;6.28;3.83;;;;;;;21.39;72.14;100833.72;2602856;89;21144;-86
2022/09/01 08:33:16;;;;;;;4.10;2.87;;;;;;;21.45;72.58;100836.20;2633093;87;21087;-86
2022/09/01 08:37:18;;;;;;;5.28;3.60;;;;;;;21.46;71.20;100841.09;2656775;87;21108;-86
2022/09/01 08:41:56;;;;;;;2.12;2.00;;;;;;;21.40;71.29;100838.11;2616771;87;21118;-86
2022/09/01 08:46:02;;;;;;;8.88;3.37;;;;;;;21.28;71.60;100841.45;2628976;88;21096;-86
2022/09/01 08:50:05;;;;;;;5.65;2.83;;;;;;;21.29;74.29;100845.83;2642256;88;21080;-86
2022/09/01 08:54:20;;;;;;;2.85;2.05;;;;;;;21.57;72.28;100838.44;2668347;87;21502;-86
2022/09/01 08:58:22;;;;;;;3.45;2.10;;;;;;;21.78;71.48;100837.23;2616705;88;21130;-86
2022/09/01 09:02:48;;;;;;;3.67;2.02;;;;;;;21.72;71.42;100837.98;2662730;86;21059;-86
2022/09/01 09:07:04;;;;;;;3.10;2.02;;;;;;;21.47;70.70;100839.56;2641211;89;21079;-87
2022/09/01 09:11:53;;;;;;;3.58;1.62;;;;;;;21.48;71.80;100834.48;2615125;89;21131;-87
2022/09/01 09:16:18;;;;;;;3.70;1.52;;;;;;;21.67;70.06;100838.53;2596891;88;21020;-88
2022/09/01 09:20:19;;;;;;;5.87;1.92;;;;;;;21.75;69.40;100832.19;2586698;88;21706;-87
2022/09/01 09:24:45;;;;;;;4.28;2.25;;;;;;;21.95;71.29;100823.50;2627864;88;21064;-88
2022/09/01 09:28:31;;;;;;;2.47;1.98;;;;;;;22.10;68.47;100827.03;2622793;89;21168;-87
2022/09/01 09:32:54;;;;;;;1.20;1.10;;;;;;;21.81;66.76;100828.75;2628642;89;21155;-87
2022/09/01 09:36:56;;;;;;;3.35;1.60;;;;;;;21.67;66.31;100824.99;2615948;88;21527;-87
2022/09/01 09:41:07;;;;;;;1.67;1.00;;;;;;;21.66;66.99;100817.08;2637294;88;21100;-87
2022/09/01 09:45:29;;;;;;;3.98;1.32;;;;;;;21.89;65.75;100817.48;2656903;87;21076;-87
2022/09/01 09:49:33;;;;;;;3.75;1.22;;;;;;;22.31;66.81;100814.56;2616146;90;21091;-87
2022/09/01 09:53:34;;;;;;;1.57;0.93;;;;;;;22.52;61.40;100808.88;2623087;88;21198;-87
2022/09/01 09:57:41;;;;;;;3.27;0.93;;;;;;;22.25;62.63;100818.05;2632563;88;21885;-87
2022/09/01 10:01:42;;;;;;;8.20;1.30;;;;;;;22.03;62.73;100815.28;2584133;89;21054;-88
2022/09/01 10:05:52;;;;;;;1.05;0.88;;;;;;;21.89;63.32;100812.07;2613921;85;21109;-87
2022/09/01 10:09:56;;;;;;;2.95;1.52;;;;;;;21.66;64.24;100819.78;2618208;88;21059;-87
2022/09/01 10:13:58;;;;;;;0.60;0.60;;;;;;;21.44;65.18;100810.67;2629043;88;21655;-87
2022/09/01 10:18:13;;;;;;;0.93;0.80;;;;;;;21.20;65.45;100815.30;2622323;88;21260;-88
2022/09/01 10:22:14;;;;;;;1.57;1.30;;;;;;;21.02;66.56;100819.67;2643769;88;21617;-87
2022/09/01 10:26:33;;;;;;;3.02;1.02;;;;;;;20.84;66.82;100819.50;2653378;87;21080;-88
2022/09/01 10:30:41;;;;;;;1.35;0.82;;;;;;;20.66;67.96;100815.20;2630410;88;21085;-87
2022/09/01 10:34:45;;;;;;;3.45;1.35;;;;;;;20.62;69.23;100819.26;2623173;88;21107;-87
2022/09/01 10:38:47;;;;;;;1.22;0.80;;;;;;;20.58;68.77;100817.94;2615006;89;21089;-87
2022/09/01 10:42:53;;;;;;;2.90;1.55;;;;;;;20.63;69.60;100815.53;2607821;89;21622;-87
2022/09/01 10:46:53;;;;;;;3.55;1.40;;;;;;;20.62;68.42;100825.19;2609539;88;21091;-87
2022/09/01 10:51:18;;;;;;;1.72;1.27;;;;;;;20.62;70.34;100823.84;2615896;88;21121;-87
2022/09/01 10:55:37;;;;;;;1.32;0.98;;;;;;;20.67;69.19;100820.94;2606873;87;21631;-87
2022/09/01 10:59:39;;;;;;;1.82;1.02;;;;;;;20.73;69.45;100816.64;2607402;89;21102;-87
2022/09/01 11:03:56;;;;;;;1.10;0.75;;;;;;;20.94;68.35;100813.84;2635206;87;21108;-87
2022/09/01 11:07:57;;;;;;;6.12;1.60;;;;;;;21.35;69.32;100809.91;2637617;87;21125;-87
2022/09/01 11:12:33;;;;;;;18.65;3.20;;;;;;;21.61;63.51;100812.18;2650954;87;21071;-87
2022/09/01 11:16:40;;;;;;;4.47;1.40;;;;;;;21.63;64.69;100807.42;2568670;89;21080;-87
2022/09/01 11:20:44;;;;;;;5.42;1.60;;;;;;;21.49;64.18;100805.53;2663206;88;21138;-88
2022/09/01 11:24:53;;;;;;;1.15;0.82;;;;;;;21.37;64.55;100807.36;2622593;89;21080;-87
2022/09/01 11:28:55;;;;;;;3.90;1.90;;;;;;;21.34;65.62;100805.53;2622930;88;21131;-88
2022/09/01 11:33:17;;;;;;;4.00;1.57;;;;;;;21.42;68.39;100804.11;2591853;88;21083;-88
2022/09/01 11:37:22;;;;;;;0.88;0.80;;;;;;;21.36;66.65;100807.53;2630916;87;21166;-87
2022/09/01 11:41:32;;;;;;;1.30;1.20;;;;;;;21.23;67.92;100809.52;2640605;88;21092;-87
2022/09/01 11:45:38;;;;;;;1.90;1.05;;;;;;;21.19;66.98;100815.80;2632935;86;21094;-88
2022/09/01 11:49:56;;;;;;;2.50;1.40;;;;;;;21.20;65.50;100812.60;2615736;88;21127;-88
2022/09/01 11:53:59;;;;;;;4.83;0.90;;;;;;;21.22;65.22;100807.84;2596281;89;21191;-87
2022/09/01 11:58:02;;;;;;;2.27;1.02;;;;;;;21.23;64.78;100806.82;2607537;89;21136;-87
2022/09/01 12:02:04;;;;;;;1.85;0.88;;;;;;;21.30;64.79;100802.87;2625868;89;21544;-87
2022/09/01 12:06:11;;;;;;;5.42;0.70;;;;;;;21.36;62.67;100798.06;2601139;89;21143;-87
2022/09/01 12:10:37;;;;;;;3.40;1.22;;;;;;;21.39;64.31;100794.98;2588195;89;21100;-88
2022/09/01 12:14:38;;;;;;;;;;;;;;;21.43;64.22;100789.55;2607849;90;21131;-88
2022/09/01 12:18:52;;;;;;;1.50;1.00;;;;;;;21.51;65.23;100788.09;2594721;90;20243;-88
2022/09/01 12:22:54;;;;;;;1.27;1.07;;;;;;;21.74;62.27;100787.19;2624421;86;21778;-88
2022/09/01 12:26:57;;;;;;;2.15;0.50;;;;;;;21.93;59.99;100778.16;2583845;89;21134;-88
2022/09/01 12:31:04;;;;;;;0.23;0.20;;;;;;;22.15;56.59;100774.15;2616575;89;21557;-88
2022/09/01 12:35:18;;;;;;;0.93;0.30;;;;;;;22.43;55.30;100768.01;2606949;88;21607;-88
2022/09/01 12:39:24;;;;;;;0.78;0.53;;;;;;;22.65;56.94;100768.86;2620449;88;21036;-88
2022/09/01 12:43:37;;;;;;;2.55;0.40;;;;;;;22.75;52.50;100757.19;2654382;87;21044;-88
2022/09/01 12:47:46;;;;;;;0.33;0.33;;;;;;;22.91;53.80;100762.84;2668306;85;21131;-88
2022/09/01 12:51:47;;;;;;;1.25;0.57;;;;;;;23.21;52.44;100754.52;2638261;87;21136;-88
2022/09/01 12:56:03;;;;;;;1.47;0.60;;;;;;;23.48;51.49;100745.71;2652328;87;21058;-88
2022/09/01 13:00:22;;;;;;;1.55;0.62;;;;;;;23.48;51.99;100750.63;2643000;87;21103;-88
2022/09/01 13:04:29;;;;;;;0.93;0.57;;;;;;;23.41;53.71;100753.84;2639406;88;21634;-91
2022/09/01 13:08:33;;;;;;;0.80;0.62;;;;;;;23.36;49.73;100738.14;2601854;88;21116;-91
2022/09/01 13:12:41;;;;;;;1.35;0.80;;;;;;;23.43;51.32;100727.33;2634972;87;21637;-94
2022/09/01 13:16:43;;;;;;;3.22;0.47;;;;;;;23.53;50.79;100729.68;2612763;88;21084;-90
2022/09/01 13:20:44;;;;;;;0.85;0.42;;;;;;;23.56;49.68;100731.14;2610173;89;21095;-91
2022/09/01 13:24:45;;;;;;;3.15;0.78;;;;;;;23.61;50.37;100732.21;2624818;88;21139;-91
2022/09/01 13:28:47;;;;;;;1.25;0.20;;;;;;;23.44;51.83;100747.16;2518298;89;21044;-90
2022/09/01 13:32:50;;;;;;;1.25;0.47;;;;;;;23.00;51.07;100743.73;2634745;88;21095;-90
2022/09/01 13:36:51;;;;;;;0.23;0.17;;;;;;;22.56;51.42;100741.58;2637096;88;21104;-90
2022/09/01 13:40:53;;;;;;;2.02;0.40;;;;;;;22.38;53.57;100737.41;2627856;88;21485;-89
2022/09/01 13:44:54;;;;;;;1.17;0.40;;;;;;;22.54;51.19;100747.18;2631428;88;21101;-87
2022/09/01 13:48:55;;;;;;;1.20;0.30;;;;;;;22.80;51.74;100733.56;2599322;89;21087;-88
2022/09/01 13:52:57;;;;;;;2.95;0.60;;;;;;;23.03;52.94;100739.26;2615570;88;21103;-87
2022/09/01 13:56:58;;;;;;;1.35;0.40;;;;;;;22.80;50.33;100740.34;2572987;90;21116;-88
2022/09/01 14:00:59;;;;;;;0.80;0.50;;;;;;;22.34;51.38;100738.30;2596338;90;21120;-87
2022/09/01 14:05:01;;;;;;;2.90;0.60;;;;;;;21.95;51.48;100740.89;2643493;88;21043;-87
2022/09/01 14:09:02;;;;;;;5.17;0.62;;;;;;;21.78;53.02;100738.40;2613148;89;21079;-87
2022/09/01 14:13:04;;;;;;;3.45;0.80;;;;;;;21.94;52.74;100738.72;2642916;88;21099;-87
2022/09/01 14:17:05;;;;;;;0.60;0.60;;;;;;;22.28;52.04;100726.89;2578514;88;21079;-87
2022/09/01 14:21:13;;;;;;;3.08;0.65;;;;;;;22.59;51.58;100728.98;2658993;87;21082;-87
2022/09/01 14:25:17;;;;;;;0.70;0.28;;;;;;;22.59;53.58;100737.94;2619810;89;21074;-87
2022/09/01 14:29:19;;;;;;;2.55;0.57;;;;;;;22.53;54.24;100729.23;2649545;88;21040;-86
2022/09/01 14:33:23;;;;;;;1.85;0.42;;;;;;;22.47;53.72;100734.09;2638417;87;21110;-88
2022/09/01 14:37:24;;;;;;;2.77;0.25;;;;;;;22.27;52.14;100736.05;2644598;86;21119;-87
2022/09/01 14:41:26;;;;;;;2.20;0.72;;;;;;;21.95;52.72;100727.36;2664165;87;21568;-87
2022/09/01 14:45:30;;;;;;;2.30;0.75;;;;;;;21.86;53.33;100732.57;2641004;86;21206;-87
2022/09/01 14:49:35;;;;;;;5.10;2.08;;;;;;;21.96;53.78;100719.55;2617168;88;21119;-87
2022/09/01 14:53:35;;;;;;;0.85;0.62;;;;;;;22.08;54.87;100723.95;2595872;89;21640;-87
2022/09/01 14:57:37;;;;;;;6.83;1.55;;;;;;;22.17;53.82;100718.76;2635359;88;21174;-88
2022/09/01 15:01:38;;;;;;;1.90;0.95;;;;;;;22.20;52.93;100718.87;2627726;88;21084;-88
2022/09/01 15:05:40;;;;;;;0.30;0.20;;;;;;;22.20;53.08;100717.52;2626614;87;21207;-87
2022/09/01 15:09:41;;;;;;;3.17;0.50;;;;;;;22.23;51.98;100717.16;2620690;89;21643;-88
2022/09/01 15:13:44;;;;;;;1.35;0.30;;;;;;;22.30;53.91;100714.48;2602763;86;21069;-88
2022/09/01 15:17:45;;;;;;;0.85;0.30;;;;;;;22.31;53.04;100719.73;2594156;88;21645;-88
2022/09/01 15:21:46;;;;;;;3.17;0.40;;;;;;;22.32;52.81;100725.47;2592927;88;21039;-88
2022/09/01 15:25:51;;;;;;;0.50;0.20;;;;;;;22.40;52.19;100715.88;2639178;87;21055;-88
2022/09/01 15:29:54;;;;;;;1.55;0.53;;;;;;;22.44;50.80;100712.23;2611891;86;21582;-88
2022/09/01 15:33:56;;;;;;;0.30;0.20;;;;;;;22.39;54.65;100712.81;2536865;90;21095;-88
2022/09/01 15:37:59;;;;;;;0.28;0.25;;;;;;;22.44;51.32;100708.70;2629472;87;21643;-88
2022/09/01 15:42:01;;;;;;;0.50;0.40;;;;;;;22.48;50.81;100711.37;2644331;88;21079;-88
2022/09/01 15:46:04;;;;;;;0.13;0.13;;;;;;;22.48;51.17;100712.73;2603533;89;21567;-88
2022/09/01 15:50:08;;;;;;;0.50;0.20;;;;;;;22.47;47.62;100709.70;2616740;89;21160;-88
2022/09/01 15:54:17;;;;;;;2.87;0.40;;;;;;;22.40;49.91;100709.59;2594429;89;21075;-88
2022/09/01 15:58:19;;;;;;;5.30;0.70;;;;;;;22.35;49.65;100707.46;2619268;88;21079;-88
2022/09/01 16:02:25;;;;;;;1.57;0.60;;;;;;;22.34;50.52;100700.90;2621750;86;21063;-88
2022/09/01 16:06:25;;;;;;;4.00;0.65;;;;;;;22.10;51.51;100703.78;2645249;87;21627;-87
2022/09/01 16:10:29;;;;;;;1.20;0.68;;;;;;;22.00;49.83;100703.23;2614731;88;21074;-87
2022/09/01 16:14:30;;;;;;;1.42;0.75;;;;;;;21.92;50.86;100707.43;2623344;88;21103;-86
2022/09/01 16:18:52;;;;;;;3.40;1.15;;;;;;;21.82;51.10;100704.53;2639823;87;21052;-86
2022/09/01 16:23:08;;;;;;;1.22;0.88;;;;;;;21.81;52.85;100704.20;2632137;87;21099;-86
2022/09/01 16:27:17;;;;;;;1.30;0.30;;;;;;;21.77;52.90;100706.94;2640132;88;21088;-86
2022/09/01 16:31:26;;;;;;;4.33;0.80;;;;;;;21.73;53.46;100704.30;2635953;87;21099;-87
2022/09/01 16:35:36;;;;;;;4.72;0.90;;;;;;;21.60;54.64;100697.32;2648208;87;21075;-88
2022/09/01 16:39:46;;;;;;;1.25;0.17;;;;;;;21.51;54.86;100695.23;2627232;88;21608;-87
2022/09/01 16:44:10;;;;;;;1.27;0.40;;;;;;;21.37;54.18;100694.22;2660273;88;21072;-87
2022/09/01 16:48:39;;;;;;;1.22;0.40;;;;;;;21.30;54.36;100696.00;2590661;88;21118;-86
2022/09/01 16:52:55;;;;;;;1.15;0.80;;;;;;;21.19;55.72;100700.02;2630476;88;21063;-88
2022/09/01 16:57:31;;;;;;;1.80;0.80;;;;;;;21.04;56.16;100694.61;2525834;90;21745;-87
2022/09/01 17:01:55;;;;;;;1.22;0.82;;;;;;;20.94;58.45;100698.41;2631768;88;21793;-87
2022/09/01 17:06:07;;;;;;;2.95;1.32;;;;;;;20.84;57.87;100697.84;2625589;88;21533;-87
2022/09/01 17:10:23;;;;;;;5.55;1.32;;;;;;;20.71;59.33;100702.47;2621674;88;21131;-88
2022/09/01 17:14:37;;;;;;;1.42;0.47;;;;;;;20.59;58.83;100703.94;2647360;87;21698;-87
2022/09/01 17:18:49;;;;;;;1.52;0.60;;;;;;;20.46;59.88;100709.96;2608727;88;21190;-87
2022/09/01 17:22:51;;;;;;;6.78;0.95;;;;;;;20.34;60.53;100712.22;2620388;87;21098;-87
2022/09/01 17:26:57;;;;;;;4.92;1.05;;;;;;;20.16;60.71;100707.13;2630024;87;21016;-87
2022/09/01 17:31:41;;;;;;;5.08;0.57;;;;;;;20.02;60.86;100708.20;2632780;87;21016;-87
2022/09/01 17:35:53;;;;;;;3.17;0.93;;;;;;;19.90;61.25;100717.71;2624439;88;21065;-87
2022/09/01 17:40:18;;;;;;;4.10;1.07;;;;;;;19.70;62.23;100721.67;2594037;89;21101;-87
2022/09/01 17:44:44;;;;;;;1.15;0.53;;;;;;;19.54;62.91;100723.94;2636701;87;21498;-87
2022/09/01 17:49:18;;;;;;;1.17;0.80;;;;;;;19.40;63.41;100730.05;2633758;88;21131;-87
2022/09/01 17:53:30;;;;;;;3.72;1.15;;;;;;;19.26;63.13;100732.95;2573177;90;21167;-86
2022/09/01 17:57:43;;;;;;;4.62;1.40;;;;;;;19.14;63.02;100740.56;2578082;90;21665;-87
2022/09/01 18:02:13;;;;;;;1.22;0.72;;;;;;;19.04;63.27;100743.94;2589626;90;21019;-87
2022/09/01 18:06:20;;;;;;;2.87;0.75;;;;;;;18.95;63.64;100748.46;2553176;90;21091;-87
2022/09/01 18:10:33;;;;;;;2.10;0.98;;;;;;;18.83;63.74;100749.31;2556011;90;21515;-87
2022/09/01 18:15:19;;;;;;;0.55;0.40;;;;;;;18.73;64.02;100754.05;2554853;90;21189;-87
2022/09/01 18:19:26;;;;;;;6.27;1.20;;;;;;;18.61;63.73;100757.06;2566235;90;21695;-87
2022/09/01 18:23:30;;;;;;;1.95;0.62;;;;;;;18.47;64.27;100763.95;2539986;92;21161;-87
2022/09/01 18:27:32;;;;;;;0.80;0.50;;;;;;;18.37;64.62;100773.53;2497103;93;22494;-87
2022/09/01 18:31:53;;;;;;;2.58;0.85;;;;;;;18.25;65.00;100774.34;2547360;91;21446;-86
2022/09/01 18:36:09;;;;;;;2.52;0.72;;;;;;;18.14;65.45;100771.95;2544242;91;21122;-85
2022/09/01 18:41:02;;;;;;;0.98;0.82;;;;;;;18.05;65.84;100773.77;2571902;90;21127;-85
2022/09/01 18:45:18;;;;;;;3.45;1.20;;;;;;;17.96;65.99;100776.08;2611667;89;21739;-82
2022/09/01 18:49:45;;;;;;;12.78;8.30;;;;;;;17.89;66.19;100780.44;2646039;88;21087;-84
2022/09/01 18:54:09;;;;;;;5.15;2.80;;;;;;;17.82;67.18;100786.96;2633381;88;21219;-84
2022/09/01 18:58:41;;;;;;;1.42;1.15;;;;;;;17.75;66.96;100787.24;2606994;89;21606;-84
2022/09/01 19:03:21;;;;;;;3.72;1.65;;;;;;;17.65;67.25;100789.56;2628800;88;21121;-87
2022/09/01 19:07:53;;;;;;;2.27;0.80;;;;;;;17.59;67.56;100790.70;2625962;88;21602;-87